createdAt,value
2019-01-05T00:02:04.585Z,1.90
2019-01-05T00:04:35.882Z,1.90
2019-01-05T00:07:12.655Z,1.90
2019-01-05T00:12:35.448Z,1.90
2019-01-05T00:15:08.493Z,1.90
2019-01-05T00:17:57.626Z,1.90
2019-01-05T00:20:34.178Z,1.90
2019-01-05T00:23:19.666Z,1.90
2019-01-05T00:26:02.962Z,1.90
2019-01-05T00:28:34.303Z,1.90
2019-01-05T00:31:08.033Z,1.90
2019-01-05T00:33:55.139Z,1.90
2019-01-05T00:36:38.032Z,1.80
2019-01-05T00:39:17.476Z,1.80
2019-01-05T00:41:51.405Z,1.80
2019-01-05T00:44:30.531Z,1.80
2019-01-05T00:47:05.466Z,1.80
2019-01-05T00:49:42.617Z,1.80
2019-01-05T00:52:30.575Z,1.80
2019-01-05T00:55:00.902Z,1.80
2019-01-05T00:57:37.030Z,1.80
2019-01-05T01:00:11.299Z,1.80
2019-01-05T01:02:41.545Z,1.80
2019-01-05T01:05:27.018Z,1.80
2019-01-05T01:07:59.752Z,1.80
2019-01-05T01:10:44.587Z,1.80
2019-01-05T01:13:14.668Z,1.80
2019-01-05T01:16:00.049Z,1.80
2019-01-05T01:18:30.249Z,1.80
2019-01-05T01:21:04.382Z,1.80
2019-01-05T01:23:44.497Z,1.80
2019-01-05T01:26:30.850Z,1.80
2019-01-05T01:29:01.846Z,1.80
2019-01-05T01:31:35.819Z,1.80
2019-01-05T01:34:06.041Z,1.80
2019-01-05T01:36:45.429Z,1.80
2019-01-05T01:39:36.615Z,1.80
2019-01-05T01:42:16.135Z,1.80
2019-01-05T01:45:02.738Z,1.80
2019-01-05T01:47:51.459Z,1.80
2019-01-05T01:50:35.170Z,1.80
2019-01-05T01:53:25.659Z,1.80
2019-01-05T01:55:57.884Z,1.80
2019-01-05T01:58:43.012Z,1.80
2019-01-05T02:01:29.815Z,1.80
2019-01-05T02:04:18.633Z,1.80
2019-01-05T02:06:51.248Z,1.80
2019-01-05T02:09:29.425Z,1.80
2019-01-05T02:12:07.850Z,1.80
2019-01-05T02:14:56.130Z,1.80
2019-01-05T02:17:29.313Z,1.80
2019-01-05T02:20:28.980Z,1.80
2019-01-05T02:23:16.962Z,1.80
2019-01-05T02:26:07.388Z,1.80
2019-01-05T02:29:24.502Z,1.80
2019-01-05T02:32:18.233Z,1.80
2019-01-05T02:35:03.333Z,1.80
2019-01-05T02:38:02.022Z,1.80
2019-01-05T02:41:11.552Z,1.80
2019-01-05T02:43:59.737Z,1.80
2019-01-05T02:46:47.464Z,1.80
2019-01-05T02:49:37.851Z,1.80
2019-01-05T02:52:39.160Z,1.70
2019-01-05T02:55:38.402Z,1.70
2019-01-05T02:58:23.390Z,1.80
2019-01-05T03:01:20.293Z,1.80
2019-01-05T03:04:08.504Z,1.80
2019-01-05T03:07:02.775Z,1.80
2019-01-05T03:09:41.658Z,1.70
2019-01-05T03:12:35.909Z,1.70
2019-01-05T03:15:49.912Z,1.80
2019-01-05T03:18:39.756Z,1.70
2019-01-05T03:21:36.391Z,2.30
2019-01-05T03:24:15.476Z,1.80
2019-01-05T03:27:10.851Z,1.70
2019-01-05T03:30:08.260Z,1.70
2019-01-05T03:32:46.606Z,1.70
2019-01-05T03:35:25.328Z,1.70
2019-01-05T03:38:39.311Z,1.70
2019-01-05T03:41:37.742Z,1.70
2019-01-05T03:44:39.562Z,1.70
2019-01-05T03:47:27.301Z,1.60
2019-01-05T03:50:30.260Z,1.60
2019-01-05T03:53:46.889Z,1.50
2019-01-05T03:56:49.714Z,1.50
2019-01-05T04:00:06.214Z,1.50
2019-01-05T04:02:54.146Z,1.40
2019-01-05T04:05:54.819Z,1.40
2019-01-05T04:08:45.766Z,1.30
2019-01-05T04:11:55.403Z,1.30
2019-01-05T04:15:07.638Z,1.20
2019-01-05T04:17:55.197Z,1.20
2019-01-05T04:20:47.729Z,1.10
2019-01-05T04:23:33.289Z,1.00
2019-01-05T04:26:35.082Z,1.00
2019-01-05T04:29:19.822Z,0.90
2019-01-05T04:32:14.858Z,0.90
2019-01-05T04:35:11.762Z,0.90
2019-01-05T04:38:28.623Z,0.80
2019-01-05T04:41:12.756Z,0.70
2019-01-05T04:43:54.421Z,0.70
2019-01-05T04:46:45.217Z,0.70
2019-01-05T04:49:50.193Z,0.70
2019-01-05T04:52:50.493Z,0.70
2019-01-05T04:55:46.168Z,0.60
2019-01-05T04:59:06.522Z,0.60
2019-01-05T05:02:16.954Z,0.60
2019-01-05T05:05:18.242Z,0.60
2019-01-05T05:07:54.362Z,0.60
2019-01-05T05:10:54.538Z,0.60
2019-01-05T05:13:33.752Z,0.60
2019-01-05T05:16:35.250Z,0.60
2019-01-05T05:19:16.636Z,0.50
2019-01-05T05:22:41.940Z,0.60
2019-01-05T05:25:40.658Z,0.50
2019-01-05T05:28:30.081Z,0.50
2019-01-05T05:31:37.998Z,0.50
2019-01-05T05:34:43.654Z,0.50
2019-01-05T05:37:22.707Z,0.50
2019-01-05T05:40:37.807Z,0.50
2019-01-05T05:43:52.851Z,0.50
2019-01-05T05:46:40.604Z,0.50
2019-01-05T05:49:39.297Z,0.50
2019-01-05T05:52:42.503Z,0.50
2019-01-05T05:55:47.920Z,0.50
2019-01-05T05:58:26.471Z,0.50
2019-01-05T06:01:35.875Z,0.50
2019-01-05T06:04:39.377Z,0.50
2019-01-05T06:07:43.779Z,0.50
2019-01-05T06:13:53.402Z,0.60
2019-01-05T06:16:41.531Z,0.60
2019-01-05T06:19:50.152Z,0.60
2019-01-05T06:22:40.769Z,0.60
2019-01-05T06:25:39.463Z,0.70
2019-01-05T06:28:35.087Z,0.70
2019-01-05T06:31:28.895Z,0.70
2019-01-05T06:34:22.381Z,0.70
2019-01-05T06:37:16.760Z,0.70
2019-01-05T06:43:01.533Z,0.70
2019-01-05T06:46:07.758Z,0.70
2019-01-05T06:49:06.658Z,0.80
2019-01-05T06:52:14.516Z,0.80
2019-01-05T06:55:29.658Z,0.80
2019-01-05T06:58:53.238Z,0.80
2019-01-05T07:02:20.122Z,0.80
2019-01-05T07:05:19.114Z,0.70
2019-01-05T07:08:04.906Z,0.80
2019-01-05T07:11:12.815Z,0.80
2019-01-05T07:14:08.425Z,0.80
2019-01-05T07:17:24.960Z,0.80
2019-01-05T07:20:23.818Z,0.80
2019-01-05T07:23:32.610Z,0.80
2019-01-05T07:26:31.256Z,0.80
2019-01-05T07:29:57.846Z,0.80
2019-01-05T07:32:46.018Z,0.80
2019-01-05T07:35:52.523Z,0.80
2019-01-05T07:38:44.621Z,0.80
2019-01-05T07:41:42.910Z,0.80
2019-01-05T07:44:45.787Z,0.80
2019-01-05T07:48:09.042Z,0.80
2019-01-05T07:51:19.981Z,0.80
2019-01-05T07:54:29.625Z,0.90
2019-01-05T07:57:27.750Z,0.80
2019-01-05T08:00:52.321Z,0.80
2019-01-05T08:03:40.618Z,0.80
2019-01-05T08:06:34.365Z,0.80
2019-01-05T08:09:34.580Z,0.80
2019-01-05T08:12:40.970Z,0.90
2019-01-05T08:15:39.585Z,0.90
2019-01-05T08:18:30.578Z,0.90
2019-01-05T08:21:33.526Z,1.00
2019-01-05T08:24:25.702Z,1.00
2019-01-05T08:27:30.460Z,1.00
2019-01-05T08:30:40.928Z,1.00
2019-01-05T08:33:28.264Z,1.00
2019-01-05T08:36:40.979Z,1.00
2019-01-05T08:39:48.771Z,1.10
2019-01-05T08:43:02.690Z,1.10
2019-01-05T08:46:27.355Z,1.10
2019-01-05T08:49:09.259Z,1.10
2019-01-05T08:52:00.379Z,1.10
2019-01-05T08:55:09.884Z,1.20
2019-01-05T08:58:08.606Z,1.20
2019-01-05T09:00:49.995Z,1.20
2019-01-05T09:03:37.383Z,1.20
2019-01-05T09:06:27.780Z,1.20
2019-01-05T09:09:20.231Z,1.20
2019-01-05T09:12:14.176Z,1.20
2019-01-05T09:15:11.923Z,1.20
2019-01-05T09:18:18.322Z,1.30
2019-01-05T09:21:16.175Z,1.30
2019-01-05T09:24:20.983Z,1.40
2019-01-05T09:26:56.610Z,1.40
2019-01-05T09:29:57.866Z,1.40
2019-01-05T09:32:45.418Z,1.40
2019-01-05T09:35:38.107Z,1.40
2019-01-05T09:38:41.535Z,1.40
2019-01-05T09:41:32.382Z,1.50
2019-01-05T09:44:17.451Z,1.50
2019-01-05T09:47:19.666Z,1.50
2019-01-05T09:50:14.726Z,1.50
2019-01-05T09:52:56.454Z,1.60
2019-01-05T09:55:43.789Z,1.60
2019-01-05T09:58:34.114Z,1.60
2019-01-05T10:01:54.287Z,1.60
2019-01-05T10:04:33.146Z,1.70
2019-01-05T10:07:40.906Z,1.70
2019-01-05T10:10:27.801Z,1.70
2019-01-05T10:13:09.644Z,1.70
2019-01-05T10:16:33.156Z,1.70
2019-01-05T10:19:57.560Z,1.70
2019-01-05T10:23:22.202Z,1.80
2019-01-05T10:30:01.651Z,1.80
2019-01-05T10:33:03.668Z,1.90
2019-01-05T10:36:21.920Z,1.90
2019-01-05T10:39:10.226Z,2.00
2019-01-05T10:42:01.041Z,2.00
2019-01-05T10:45:27.289Z,2.00
2019-01-05T10:48:36.834Z,2.10
2019-01-05T10:51:34.525Z,2.10
2019-01-05T10:54:22.703Z,2.10
2019-01-05T10:57:48.254Z,2.10
2019-01-05T11:00:57.613Z,2.20
2019-01-05T11:03:42.107Z,2.20
2019-01-05T11:06:39.365Z,2.30
2019-01-05T11:09:47.236Z,2.40
2019-01-05T11:12:41.187Z,2.40
2019-01-05T11:15:37.903Z,2.50
2019-01-05T11:18:44.221Z,2.60
2019-01-05T11:21:43.811Z,2.70
2019-01-05T11:24:44.168Z,2.80
2019-01-05T11:27:44.544Z,3.00
2019-01-05T11:30:56.550Z,3.00
2019-01-05T11:33:47.670Z,3.00
2019-01-05T11:37:03.534Z,3.10
2019-01-05T11:40:14.169Z,3.20
2019-01-05T11:43:12.751Z,3.30
2019-01-05T11:45:57.685Z,3.20
2019-01-05T11:49:05.410Z,3.30
2019-01-05T11:52:03.313Z,3.30
2019-01-05T11:55:10.149Z,3.30
2019-01-05T11:58:21.553Z,3.30
2019-01-05T12:01:18.521Z,3.40
2019-01-05T12:04:30.445Z,3.50
2019-01-05T12:07:33.403Z,3.50
2019-01-05T12:13:30.079Z,3.50
2019-01-05T12:16:40.775Z,3.60
2019-01-05T12:19:27.963Z,3.60
2019-01-05T12:22:44.989Z,3.70
2019-01-05T12:28:45.427Z,3.80
2019-01-05T12:32:03.684Z,3.80
2019-01-05T12:34:45.419Z,3.90
2019-01-05T12:37:47.667Z,4.00
2019-01-05T12:40:49.402Z,4.10
2019-01-05T12:43:37.551Z,4.20
2019-01-05T12:46:39.542Z,4.20
2019-01-05T12:49:38.812Z,4.20
2019-01-05T12:52:45.429Z,4.30
2019-01-05T12:55:42.164Z,4.30
2019-01-05T12:58:41.325Z,4.30
2019-01-05T13:01:39.931Z,4.40
2019-01-05T13:04:32.343Z,4.50
2019-01-05T13:07:28.836Z,4.60
2019-01-05T13:10:35.186Z,4.70
2019-01-05T13:13:30.265Z,4.80
2019-01-05T13:16:36.959Z,4.80
2019-01-05T13:19:27.955Z,4.90
2019-01-05T13:22:19.672Z,4.90
2019-01-05T13:24:55.709Z,5.00
2019-01-05T13:28:07.167Z,5.00
2019-01-05T13:31:12.949Z,5.00
2019-01-05T13:34:14.070Z,5.00
2019-01-05T13:36:52.933Z,5.00
2019-01-05T13:39:57.676Z,5.00
2019-01-05T13:45:56.833Z,5.10
2019-01-05T13:48:55.551Z,5.10
2019-01-05T13:51:52.411Z,5.10
2019-01-05T13:54:31.352Z,5.10
2019-01-05T13:57:01.420Z,5.10
2019-01-05T13:59:37.330Z,5.20
2019-01-05T14:02:07.484Z,5.20
2019-01-05T14:04:38.084Z,5.10
2019-01-05T14:07:08.181Z,5.10
2019-01-05T14:09:54.678Z,5.10
2019-01-05T14:12:27.444Z,5.10
2019-01-05T14:15:15.388Z,5.10
2019-01-05T14:17:51.226Z,5.10
2019-01-05T14:20:27.028Z,5.10
2019-01-05T14:23:13.220Z,5.10
2019-01-05T14:25:59.935Z,5.10
2019-01-05T14:28:47.777Z,5.10
2019-01-05T14:31:49.340Z,5.10
2019-01-05T14:34:19.421Z,5.10
2019-01-05T14:36:57.572Z,5.10
2019-01-05T14:39:43.785Z,5.10
2019-01-05T14:42:30.342Z,5.00
2019-01-05T14:45:17.060Z,5.10
2019-01-05T14:47:47.323Z,5.00
2019-01-05T14:50:20.156Z,5.00
2019-01-05T14:53:06.580Z,5.00
2019-01-05T14:55:51.967Z,5.00
2019-01-05T14:58:25.239Z,5.00
2019-01-05T15:00:55.368Z,5.00
2019-01-05T15:03:25.443Z,5.00
2019-01-05T15:05:58.246Z,5.00
2019-01-05T15:08:31.009Z,5.00
2019-01-05T15:11:13.098Z,5.00
2019-01-05T15:13:46.025Z,5.00
2019-01-05T15:16:27.913Z,5.00
2019-01-05T15:19:14.430Z,5.00
2019-01-05T15:21:56.560Z,5.00
2019-01-05T15:24:42.854Z,5.00
2019-01-05T15:27:21.683Z,5.00
2019-01-05T15:29:51.766Z,5.00
2019-01-05T15:32:21.932Z,5.00
2019-01-05T15:35:10.016Z,5.00
2019-01-05T15:37:42.695Z,5.10
2019-01-05T15:40:29.227Z,5.10
2019-01-05T15:43:14.280Z,5.20
2019-01-05T15:45:56.392Z,5.30
2019-01-05T15:48:38.472Z,5.30
2019-01-05T15:51:23.258Z,5.40
2019-01-05T15:53:56.280Z,5.30
2019-01-05T15:56:29.249Z,5.40
2019-01-05T15:59:02.538Z,5.30
2019-01-05T16:01:41.803Z,5.40
2019-01-05T16:04:28.150Z,5.30
2019-01-05T16:07:01.055Z,5.30
2019-01-05T16:09:47.083Z,5.30
2019-01-05T16:12:32.467Z,5.30
2019-01-05T16:15:18.899Z,5.30
2019-01-05T16:17:51.725Z,5.30
2019-01-05T16:20:21.837Z,5.30
2019-01-05T16:23:08.201Z,5.30
2019-01-05T16:25:38.461Z,5.30
2019-01-05T16:28:08.626Z,5.40
2019-01-05T16:30:38.805Z,5.30
2019-01-05T16:33:08.894Z,5.30
2019-01-05T16:35:41.861Z,5.30
2019-01-05T16:38:28.087Z,5.30
2019-01-05T16:41:00.915Z,5.30
2019-01-05T16:43:47.502Z,5.30
2019-01-05T16:46:23.817Z,5.20
2019-01-05T16:49:09.917Z,5.20
2019-01-05T16:51:45.938Z,5.10
2019-01-05T16:54:16.127Z,5.10
2019-01-05T16:57:02.887Z,5.00
2019-01-05T16:59:49.011Z,5.00
2019-01-05T17:02:35.680Z,5.00
2019-01-05T17:05:06.197Z,5.00
2019-01-05T17:07:42.210Z,4.90
2019-01-05T17:10:12.398Z,5.00
2019-01-05T17:12:54.695Z,4.90
2019-01-05T17:15:42.751Z,4.90
2019-01-05T17:18:24.848Z,4.90
2019-01-05T17:20:54.907Z,4.90
2019-01-05T17:23:41.357Z,4.80
2019-01-05T17:26:17.846Z,4.90
2019-01-05T17:28:58.130Z,4.90
2019-01-05T17:31:28.303Z,4.80
2019-01-05T17:34:04.112Z,4.90
2019-01-05T17:36:37.110Z,4.90
2019-01-05T17:39:11.846Z,4.90
2019-01-05T17:41:58.189Z,4.80
2019-01-05T17:44:43.245Z,4.90
2019-01-05T17:47:16.387Z,4.80
2019-01-05T17:49:46.442Z,4.80
2019-01-05T17:52:33.177Z,4.80
2019-01-05T17:55:06.072Z,4.80
2019-01-05T17:57:52.404Z,4.80
2019-01-05T18:00:40.863Z,4.80
2019-01-05T18:03:16.528Z,4.80
2019-01-05T18:06:02.967Z,4.80
2019-01-05T18:08:48.797Z,4.80
2019-01-05T18:11:24.994Z,4.80
2019-01-05T18:14:07.067Z,4.70
2019-01-05T18:16:37.187Z,4.70
2019-01-05T18:19:23.463Z,4.70
2019-01-05T18:21:56.657Z,4.70
2019-01-05T18:24:42.736Z,4.70
2019-01-05T18:27:22.931Z,4.60
2019-01-05T18:30:11.114Z,4.60
2019-01-05T18:32:56.338Z,4.60
2019-01-05T18:35:44.909Z,4.60
2019-01-05T18:38:18.075Z,4.60
2019-01-05T18:40:53.913Z,4.60
2019-01-05T18:43:32.941Z,4.60
2019-01-05T18:46:03.036Z,4.60
2019-01-05T18:48:51.647Z,4.60
2019-01-05T18:51:39.558Z,4.60
2019-01-05T18:54:18.432Z,4.60
2019-01-05T18:56:57.188Z,4.60
2019-01-05T18:59:29.733Z,4.60
2019-01-05T19:02:03.361Z,4.60
2019-01-05T19:04:37.763Z,4.60
2019-01-05T19:07:17.074Z,4.60
2019-01-05T19:12:31.419Z,4.60
2019-01-05T19:15:17.720Z,4.60
2019-01-05T19:17:59.634Z,4.60
2019-01-05T19:20:35.604Z,4.60
2019-01-05T19:23:14.856Z,4.60
2019-01-05T19:25:52.804Z,4.60
2019-01-05T19:28:38.193Z,4.60
2019-01-05T19:31:14.111Z,4.50
2019-01-05T19:33:53.529Z,4.50
2019-01-05T19:36:23.662Z,4.60
2019-01-05T19:38:59.493Z,4.50
2019-01-05T19:41:38.379Z,4.50
2019-01-05T19:44:24.461Z,4.50
2019-01-05T19:47:10.819Z,4.50
2019-01-05T19:49:43.857Z,4.40
2019-01-05T19:52:13.951Z,4.40
2019-01-05T19:54:44.001Z,4.40
2019-01-05T19:57:30.431Z,4.40
2019-01-05T20:00:23.439Z,4.40
2019-01-05T20:03:10.111Z,4.40
2019-01-05T20:05:42.923Z,4.50
2019-01-05T20:11:18.413Z,4.50
2019-01-05T20:14:04.750Z,4.50
2019-01-05T20:16:38.886Z,4.50
2019-01-05T20:19:21.159Z,4.50
2019-01-05T20:22:00.029Z,4.50
2019-01-05T20:24:33.196Z,4.50
2019-01-05T20:27:18.466Z,4.60
2019-01-05T20:29:48.538Z,4.60
2019-01-05T20:32:34.735Z,4.60
2019-01-05T20:35:16.722Z,4.60
2019-01-05T20:37:55.466Z,4.60
2019-01-05T20:40:31.556Z,4.60
2019-01-05T20:43:01.700Z,4.60
2019-01-05T20:46:02.569Z,4.60
2019-01-05T20:48:48.964Z,4.60
2019-01-05T20:51:21.865Z,4.60
2019-01-05T20:54:04.016Z,4.60
2019-01-05T20:56:50.136Z,4.60
2019-01-05T20:59:29.468Z,4.60
2019-01-05T21:02:17.270Z,4.60
2019-01-05T21:05:03.896Z,4.60
2019-01-05T21:07:40.834Z,4.60
2019-01-05T21:10:27.613Z,4.50
2019-01-05T21:13:06.617Z,4.50
2019-01-05T21:15:45.496Z,4.50
2019-01-05T21:18:16.331Z,4.50
2019-01-05T21:20:53.247Z,4.40
2019-01-05T21:23:39.829Z,4.50
2019-01-05T21:26:31.914Z,4.50
2019-01-05T21:29:07.722Z,4.40
2019-01-05T21:31:55.613Z,4.40
2019-01-05T21:34:38.071Z,4.40
2019-01-05T21:37:17.133Z,4.30
2019-01-05T21:40:08.649Z,4.30
2019-01-05T21:42:41.595Z,4.30
2019-01-05T21:45:23.813Z,4.30
2019-01-05T21:47:53.992Z,4.30
2019-01-05T21:50:40.580Z,4.30
2019-01-05T21:53:10.672Z,4.20
2019-01-05T21:56:16.380Z,4.20
2019-01-05T21:59:05.199Z,4.20
2019-01-05T22:01:38.124Z,4.20
2019-01-05T22:04:26.487Z,4.20
2019-01-05T22:07:12.702Z,4.10
2019-01-05T22:09:59.075Z,4.10
2019-01-05T22:12:29.145Z,4.10
2019-01-05T22:15:07.864Z,4.10
2019-01-05T22:17:49.835Z,4.10
2019-01-05T22:20:36.716Z,4.00
2019-01-05T22:23:06.837Z,4.00
2019-01-05T22:25:37.000Z,4.00
2019-01-05T22:28:32.319Z,4.00
2019-01-05T22:31:18.865Z,4.00
2019-01-05T22:33:52.089Z,3.90
2019-01-05T22:36:38.610Z,3.90
2019-01-05T22:39:20.598Z,3.90
2019-01-05T22:42:09.279Z,3.90
2019-01-05T22:44:51.557Z,4.00
2019-01-05T22:47:27.999Z,3.90
2019-01-05T22:52:43.620Z,4.00
2019-01-05T22:55:31.032Z,4.00
2019-01-05T22:58:16.259Z,4.00
2019-01-05T23:01:03.269Z,4.00
2019-01-05T23:03:33.441Z,4.00
2019-01-05T23:06:03.550Z,4.00
2019-01-05T23:08:49.893Z,4.00
2019-01-05T23:11:23.665Z,4.00
2019-01-05T23:14:10.315Z,4.10
2019-01-05T23:17:00.935Z,4.10
2019-01-05T23:19:56.633Z,4.10
2019-01-05T23:22:33.266Z,4.10
2019-01-05T23:25:08.944Z,4.20
2019-01-05T23:27:51.737Z,4.20
2019-01-05T23:30:27.830Z,4.20
2019-01-05T23:33:14.223Z,4.20
2019-01-05T23:35:50.521Z,4.20
2019-01-05T23:38:36.868Z,4.20
2019-01-05T23:41:23.170Z,4.20
2019-01-05T23:43:56.282Z,4.20
2019-01-05T23:46:26.361Z,4.20
2019-01-05T23:48:59.239Z,4.30
2019-01-05T23:51:29.308Z,4.30
2019-01-05T23:53:59.587Z,4.30
2019-01-05T23:56:44.584Z,4.30
2019-01-05T23:59:30.930Z,4.30
